createdAt,value
2018-11-23T12:18:03.164Z,23.00
2018-11-23T12:19:03.135Z,25.60
2018-11-23T12:20:03.120Z,22.90
2018-11-23T12:21:03.108Z,24.10
2018-11-23T12:22:03.098Z,22.60
2018-11-23T12:23:03.113Z,23.20
2018-11-23T12:24:03.076Z,21.70
2018-11-23T12:25:03.065Z,21.50
2018-11-23T12:26:03.057Z,23.80
2018-11-23T12:27:03.041Z,23.10
2018-11-23T12:28:03.066Z,22.80
2018-11-23T12:29:03.021Z,21.40
2018-11-23T12:30:03.011Z,21.40
2018-11-23T12:31:02.998Z,22.60
2018-11-23T12:32:02.990Z,23.00
2018-11-23T12:33:03.003Z,22.10
2018-11-23T12:34:02.965Z,22.80
2018-11-23T12:35:02.956Z,22.50
2018-11-23T12:36:02.948Z,21.70
2018-11-23T12:37:02.934Z,21.90
2018-11-23T12:38:02.944Z,20.80
2018-11-23T12:39:02.931Z,21.50
2018-11-23T12:40:02.902Z,21.10
2018-11-23T12:41:02.889Z,22.30
2018-11-23T12:42:02.882Z,20.80
2018-11-23T12:43:02.891Z,21.00
2018-11-23T12:44:02.860Z,21.10
2018-11-23T12:45:02.847Z,20.30
2018-11-23T12:46:02.836Z,21.30
2018-11-23T12:47:02.830Z,20.70
2018-11-23T12:48:02.838Z,21.20
2018-11-23T12:49:02.804Z,20.00
2018-11-23T12:50:02.793Z,19.00
2018-11-23T12:51:02.781Z,19.00
2018-11-23T12:52:02.771Z,19.90
2018-11-23T12:53:06.355Z,21.10
2018-11-23T12:54:02.749Z,21.20
2018-11-23T12:55:02.739Z,20.30
2018-11-23T12:56:02.727Z,20.20
2018-11-23T12:57:02.716Z,20.00
2018-11-23T12:58:02.727Z,19.40
2018-11-23T12:59:02.693Z,20.20
2018-11-23T13:00:02.687Z,18.70
2018-11-23T13:01:02.670Z,19.30
2018-11-23T13:02:02.662Z,20.40
2018-11-23T13:03:02.675Z,18.80
2018-11-23T13:04:02.638Z,20.20
2018-11-23T13:05:02.627Z,18.80
2018-11-23T13:06:02.615Z,19.20
2018-11-23T13:07:02.604Z,18.40
2018-11-23T13:08:02.618Z,19.80
2018-11-23T13:09:02.584Z,17.70
2018-11-23T13:10:02.573Z,16.30
2018-11-23T13:11:02.560Z,18.20
2018-11-23T13:12:02.550Z,17.60
2018-11-23T13:13:02.566Z,17.80
2018-11-23T13:14:02.529Z,16.80
2018-11-23T13:15:02.519Z,16.90
2018-11-23T13:16:02.509Z,17.70
2018-11-23T13:17:02.495Z,18.60
2018-11-23T13:18:02.506Z,18.70
2018-11-23T13:19:02.473Z,17.40
2018-11-23T13:20:02.461Z,19.10
2018-11-23T13:21:02.451Z,17.40
2018-11-23T13:22:02.437Z,18.70
2018-11-23T13:23:02.452Z,18.00
2018-11-23T13:24:02.421Z,18.70
2018-11-23T13:25:02.406Z,20.50
2018-11-23T13:26:02.393Z,19.00
2018-11-23T13:27:02.383Z,19.40
2018-11-23T13:28:02.395Z,18.60
2018-11-23T13:29:10.910Z,18.40
2018-11-23T13:30:03.359Z,22.30
2018-11-23T13:31:02.337Z,22.20
2018-11-23T13:32:02.327Z,19.80
2018-11-23T13:33:02.337Z,20.30
2018-11-23T13:34:02.303Z,19.90
2018-11-23T13:35:02.294Z,19.00
2018-11-23T13:36:02.281Z,19.50
2018-11-23T13:37:02.270Z,20.50
2018-11-23T13:38:02.283Z,18.70
2018-11-23T13:39:02.248Z,19.50
2018-11-23T13:40:02.237Z,19.10
2018-11-23T13:41:02.226Z,16.80
2018-11-23T13:42:02.215Z,17.30
2018-11-23T13:43:02.246Z,19.40
2018-11-23T13:44:02.195Z,18.50
2018-11-23T13:45:02.188Z,19.80
2018-11-23T13:46:02.172Z,18.40
2018-11-23T13:47:02.160Z,21.00
2018-11-23T13:48:02.151Z,19.20
2018-11-23T13:49:02.161Z,18.40
2018-11-23T13:50:02.125Z,18.30
2018-11-23T13:51:02.117Z,19.50
2018-11-23T13:52:02.114Z,18.40
2018-11-23T13:53:02.098Z,18.90
2018-11-23T13:54:02.105Z,16.90
2018-11-23T13:55:02.072Z,19.10
2018-11-23T13:56:02.061Z,18.30
2018-11-23T13:57:02.054Z,17.10
2018-11-23T13:58:02.039Z,18.80
2018-11-23T13:59:02.051Z,19.10
2018-11-23T14:00:02.019Z,18.10
2018-11-23T14:01:02.006Z,18.20
2018-11-23T14:02:01.996Z,16.80
2018-11-23T14:03:01.993Z,19.60
2018-11-23T14:04:01.999Z,19.20
2018-11-23T14:05:01.963Z,17.90
2018-11-23T14:06:01.971Z,18.00
2018-11-23T14:07:01.943Z,17.60
2018-11-23T14:08:01.932Z,17.30
2018-11-23T14:09:01.949Z,19.60
2018-11-23T14:10:01.926Z,18.00
2018-11-23T14:11:01.901Z,17.90
2018-11-23T14:12:01.889Z,18.70
2018-11-23T14:13:01.882Z,18.10
2018-11-23T14:14:01.894Z,15.90
2018-11-23T14:15:01.873Z,17.30
2018-11-23T14:16:01.843Z,17.50
2018-11-23T14:17:01.832Z,17.20
2018-11-23T14:18:01.824Z,18.60
2018-11-23T14:19:01.835Z,18.10
2018-11-23T14:20:01.798Z,18.40
2018-11-23T14:21:01.796Z,17.90
2018-11-23T14:22:01.780Z,17.20
2018-11-23T14:23:01.768Z,18.00
2018-11-23T14:24:01.779Z,18.30
2018-11-23T14:25:01.747Z,16.20
2018-11-23T14:26:01.734Z,18.40
2018-11-23T14:27:01.720Z,16.80
2018-11-23T14:28:01.709Z,16.40
2018-11-23T14:29:01.719Z,18.00
2018-11-23T14:30:01.690Z,16.80
2018-11-23T14:31:01.674Z,17.50
2018-11-23T14:32:01.663Z,16.80
2018-11-23T14:33:01.653Z,18.80
2018-11-23T14:34:01.669Z,16.50
2018-11-23T14:35:01.634Z,18.90
2018-11-23T14:36:01.620Z,16.20
2018-11-23T14:37:01.608Z,16.40
2018-11-23T14:38:01.596Z,15.40
2018-11-23T14:39:01.609Z,15.60
2018-11-23T14:40:01.574Z,16.50
2018-11-23T14:41:01.563Z,16.50
2018-11-23T14:42:01.553Z,16.30
2018-11-23T14:43:01.551Z,16.40
2018-11-23T14:44:06.783Z,15.80
2018-11-23T14:45:02.517Z,15.20
2018-11-23T14:46:01.508Z,17.10
2018-11-23T14:47:01.500Z,16.30
2018-11-23T14:48:01.485Z,16.30
2018-11-23T14:49:01.499Z,15.20
2018-11-23T14:50:01.463Z,15.10
2018-11-23T14:51:01.453Z,15.90
2018-11-23T14:52:01.441Z,16.60
2018-11-23T14:53:01.431Z,14.30
2018-11-23T14:54:01.441Z,16.70
2018-11-23T14:55:01.409Z,16.00
2018-11-23T14:56:01.397Z,16.10
2018-11-23T14:57:01.387Z,16.10
2018-11-23T14:58:01.389Z,17.70
2018-11-23T14:59:01.475Z,16.40
2018-11-23T15:00:01.357Z,16.90
2018-11-23T15:01:01.342Z,17.80
2018-11-23T15:02:01.335Z,17.30
2018-11-23T15:03:01.321Z,17.40
2018-11-23T15:04:01.331Z,16.90
2018-11-23T15:05:01.299Z,16.90
2018-11-23T15:06:01.290Z,18.00
2018-11-23T15:07:01.275Z,18.90
2018-11-23T15:08:01.264Z,20.00
2018-11-23T15:09:01.277Z,19.60
2018-11-23T15:10:01.242Z,18.30
2018-11-23T15:11:01.231Z,19.30
2018-11-23T15:12:01.224Z,18.40
2018-11-23T15:13:01.212Z,17.60
2018-11-23T15:14:01.223Z,20.00
2018-11-23T15:15:01.188Z,18.40
2018-11-23T15:16:01.178Z,17.70
2018-11-23T15:17:01.169Z,17.80
2018-11-23T15:18:01.156Z,17.70
2018-11-23T15:19:01.165Z,17.50
2018-11-23T15:20:01.137Z,18.70
2018-11-23T15:21:01.123Z,18.10
2018-11-23T15:22:01.110Z,18.80
2018-11-23T15:23:01.101Z,19.80
2018-11-23T15:24:01.115Z,20.00
2018-11-23T15:25:01.078Z,17.90
2018-11-23T15:26:01.067Z,19.30
2018-11-23T15:27:01.056Z,17.80
2018-11-23T15:28:01.045Z,20.00
2018-11-23T15:29:01.067Z,20.30
2018-11-23T15:30:01.025Z,18.10
2018-11-23T15:31:01.011Z,20.70
2018-11-23T15:32:01.000Z,18.80
2018-11-23T15:33:00.988Z,22.40
2018-11-23T15:34:00.978Z,19.70
2018-11-23T15:35:00.990Z,21.90
2018-11-23T15:36:00.959Z,19.50
2018-11-23T15:37:00.945Z,19.90
2018-11-23T15:38:00.934Z,19.90
2018-11-23T15:39:00.928Z,19.80
2018-11-23T15:40:00.935Z,20.10
2018-11-23T15:41:00.900Z,20.70
2018-11-23T15:42:00.890Z,21.50
2018-11-23T15:43:00.879Z,19.40
2018-11-23T15:44:00.869Z,21.90
2018-11-23T15:45:00.882Z,21.80
2018-11-23T15:46:00.848Z,20.00
2018-11-23T15:47:00.839Z,22.60
2018-11-23T15:48:00.825Z,21.80
2018-11-23T15:49:00.816Z,20.20
2018-11-23T15:50:00.825Z,23.20
2018-11-23T15:51:00.792Z,20.10
2018-11-23T15:52:00.782Z,22.10
2018-11-23T15:53:00.770Z,20.80
2018-11-23T15:54:00.765Z,21.80
2018-11-23T15:55:00.772Z,22.00
2018-11-23T15:56:00.742Z,19.10
2018-11-23T15:57:00.727Z,21.20
2018-11-23T15:58:00.717Z,21.20
2018-11-23T15:59:00.707Z,19.60
2018-11-23T16:00:00.718Z,21.60
2018-11-23T16:01:00.683Z,20.60
2018-11-23T16:02:00.677Z,20.90
2018-11-23T16:03:00.662Z,22.00
2018-11-23T16:04:00.652Z,21.80
2018-11-23T16:05:00.666Z,22.80
2018-11-23T16:06:00.676Z,20.70
2018-11-23T16:07:00.620Z,21.50
2018-11-23T16:08:00.608Z,21.10
2018-11-23T16:09:00.596Z,20.70
2018-11-23T16:10:00.607Z,24.40
2018-11-23T16:11:00.579Z,24.20
2018-11-23T16:12:00.564Z,23.80
2018-11-23T16:13:00.550Z,24.30
2018-11-23T16:14:00.541Z,25.60
2018-11-23T16:15:00.551Z,24.10
2018-11-23T16:16:00.522Z,22.40
2018-11-23T16:17:00.508Z,24.00
2018-11-23T16:18:00.499Z,22.00
2018-11-23T16:19:00.486Z,21.60
2018-11-23T16:20:00.500Z,20.70
2018-11-23T16:21:00.465Z,21.80
2018-11-23T16:22:00.452Z,20.90
2018-11-23T16:23:00.441Z,22.70
2018-11-23T16:24:00.431Z,22.00
2018-11-23T16:25:00.447Z,21.10
2018-11-23T16:26:00.408Z,23.00
2018-11-23T16:27:00.397Z,20.80
2018-11-23T16:28:00.389Z,21.70
2018-11-23T16:29:00.377Z,20.20
2018-11-23T16:30:00.389Z,21.10
2018-11-23T16:31:00.352Z,20.80
2018-11-23T16:32:00.342Z,21.60
2018-11-23T16:33:00.330Z,20.70
2018-11-23T16:34:00.321Z,21.00
2018-11-23T16:35:00.335Z,21.40
2018-11-23T16:36:00.301Z,20.90
2018-11-23T16:37:00.286Z,21.30
2018-11-23T16:38:00.277Z,21.40
2018-11-23T16:39:00.264Z,23.40
2018-11-23T16:40:00.277Z,22.60
2018-11-23T16:41:00.243Z,23.40
2018-11-23T16:42:00.232Z,22.10
2018-11-23T16:43:00.219Z,21.70
2018-11-23T16:44:00.210Z,23.50
2018-11-23T16:45:00.222Z,22.60
2018-11-23T16:46:00.208Z,22.20
2018-11-23T16:47:00.182Z,23.40
2018-11-23T16:48:00.167Z,24.20
2018-11-23T16:49:00.155Z,25.00
2018-11-23T16:50:00.166Z,24.20
2018-11-23T16:51:00.132Z,24.10
2018-11-23T16:52:00.123Z,25.60
2018-11-23T16:53:00.112Z,26.70
2018-11-23T16:54:00.101Z,26.50
2018-11-23T16:55:00.117Z,27.80
2018-11-23T16:56:00.079Z,25.80
2018-11-23T16:57:00.069Z,27.20
2018-11-23T16:58:00.062Z,26.30
2018-11-23T16:59:00.046Z,23.40
2018-11-23T17:00:00.081Z,25.80
2018-11-23T17:01:00.047Z,26.60
2018-11-23T17:02:00.020Z,26.60
2018-11-23T17:03:00.005Z,24.60
2018-11-23T17:03:59.992Z,24.20
2018-11-23T17:05:00.003Z,24.10
2018-11-23T17:05:59.972Z,21.80
2018-11-23T17:06:59.960Z,21.70
2018-11-23T17:07:59.945Z,22.60
2018-11-23T17:08:59.936Z,22.70
2018-11-23T17:09:59.963Z,22.00
2018-11-23T17:10:59.914Z,22.00
2018-11-23T17:11:59.903Z,21.50
2018-11-23T17:12:59.892Z,19.30
2018-11-23T17:13:59.882Z,23.20
2018-11-23T17:14:59.869Z,21.30
2018-11-23T17:15:59.887Z,21.80
2018-11-23T17:16:59.848Z,22.00
2018-11-23T17:17:59.839Z,22.50
2018-11-23T17:18:59.827Z,22.30
2018-11-23T17:19:59.818Z,23.30
2018-11-23T17:20:59.827Z,20.90
2018-11-23T17:21:59.793Z,21.60
2018-11-23T17:22:59.785Z,22.80
2018-11-23T17:23:59.771Z,24.00
2018-11-23T17:24:59.760Z,21.40
2018-11-23T17:25:59.773Z,23.50
2018-11-23T17:26:59.740Z,23.20
2018-11-23T17:27:59.728Z,23.40
2018-11-23T17:28:59.717Z,22.70
2018-11-23T17:29:59.707Z,21.60
2018-11-23T17:30:59.732Z,24.00
2018-11-23T17:31:59.684Z,25.10
2018-11-23T17:32:59.673Z,25.00
2018-11-23T17:33:59.662Z,24.40
2018-11-23T17:34:59.651Z,22.30
2018-11-23T17:35:59.664Z,24.50
2018-11-23T17:36:59.631Z,21.70
2018-11-23T17:37:59.621Z,25.70
2018-11-23T17:38:59.618Z,21.80
2018-11-23T17:39:59.600Z,25.30
2018-11-23T17:40:59.609Z,22.60
2018-11-23T17:41:59.577Z,23.90
2018-11-23T17:42:59.565Z,25.20
2018-11-23T17:43:59.562Z,24.10
2018-11-23T17:44:59.544Z,23.20
2018-11-23T17:45:59.554Z,22.80
2018-11-23T17:46:59.521Z,23.10
2018-11-23T17:47:59.512Z,23.40
2018-11-23T17:48:59.505Z,25.60
2018-11-23T17:49:59.492Z,25.40
2018-11-23T17:50:59.503Z,23.50
2018-11-23T17:51:59.467Z,23.70
2018-11-23T17:52:59.458Z,25.50
2018-11-23T17:53:59.449Z,23.00
2018-11-23T17:54:59.436Z,22.70
2018-11-23T17:55:59.452Z,23.00
2018-11-23T17:56:59.418Z,24.80
2018-11-23T17:57:59.407Z,25.00
2018-11-23T17:58:59.392Z,23.40
2018-11-23T17:59:59.384Z,22.80
2018-11-23T18:00:59.393Z,22.40
2018-11-23T18:01:59.361Z,23.00
2018-11-23T18:02:59.349Z,23.80
2018-11-23T18:03:59.339Z,24.70
2018-11-23T18:04:59.332Z,26.00
2018-11-23T18:05:59.341Z,23.80
2018-11-23T18:06:59.314Z,23.50
2018-11-23T18:07:59.299Z,21.90
2018-11-23T18:08:59.289Z,24.30
2018-11-23T18:09:59.274Z,25.80
2018-11-23T18:10:59.289Z,21.80
2018-11-23T18:11:59.251Z,23.50
2018-11-23T18:12:59.242Z,21.30
2018-11-23T18:13:59.230Z,23.70
2018-11-23T18:14:59.226Z,23.70
2018-11-23T18:15:59.238Z,24.20
2018-11-23T18:16:59.219Z,22.10
2018-11-23T18:17:59.187Z,24.30
2018-11-23T18:18:59.176Z,25.10
2018-11-23T18:19:59.177Z,25.40
2018-11-23T18:20:59.177Z,25.20
2018-11-23T18:21:59.145Z,25.70
2018-11-23T18:22:59.135Z,22.60
2018-11-23T18:23:59.123Z,24.40
2018-11-23T18:24:59.116Z,24.50
2018-11-23T18:25:59.124Z,24.60
2018-11-23T18:26:59.091Z,23.00
2018-11-23T18:27:59.079Z,22.20
2018-11-23T18:28:59.068Z,24.80
2018-11-23T18:29:59.056Z,25.00
2018-11-23T18:30:59.077Z,24.50
2018-11-23T18:31:59.039Z,25.50
2018-11-23T18:32:59.029Z,23.10
2018-11-23T18:33:59.015Z,26.40
2018-11-23T18:34:59.005Z,26.00
2018-11-23T18:35:59.016Z,23.90
2018-11-23T18:36:58.981Z,23.80
2018-11-23T18:37:58.972Z,23.00
2018-11-23T18:38:58.961Z,22.10
2018-11-23T18:39:58.948Z,24.30
2018-11-23T18:40:58.967Z,25.80
2018-11-23T18:41:58.928Z,23.10
2018-11-23T18:42:58.917Z,24.40
2018-11-23T18:43:58.909Z,24.00
2018-11-23T18:44:58.900Z,24.20
2018-11-23T18:45:58.995Z,26.90
2018-11-23T18:46:58.875Z,24.60
2018-11-23T18:47:58.862Z,24.70
2018-11-23T18:48:58.862Z,25.10
2018-11-23T18:49:58.841Z,24.60
2018-11-23T18:50:58.839Z,24.10
2018-11-23T18:51:58.847Z,23.50
2018-11-23T18:52:58.808Z,23.80
2018-11-23T18:53:58.800Z,24.70
2018-11-23T18:54:58.788Z,24.00
2018-11-23T18:55:58.777Z,23.60
2018-11-23T18:56:58.790Z,25.70
2018-11-23T18:57:58.757Z,25.50
2018-11-23T18:58:58.764Z,22.60
2018-11-23T18:59:58.734Z,22.80
2018-11-23T19:00:58.727Z,24.30
2018-11-23T19:01:58.744Z,22.90
2018-11-23T19:02:58.704Z,24.20
2018-11-23T19:03:58.695Z,23.10
2018-11-23T19:04:58.679Z,23.90
2018-11-23T19:05:58.669Z,24.80
2018-11-23T19:06:58.689Z,24.20
2018-11-23T19:07:58.648Z,25.00
2018-11-23T19:08:58.637Z,25.20
2018-11-23T19:09:58.650Z,24.90
2018-11-23T19:10:58.618Z,24.80
2018-11-23T19:11:58.627Z,25.30
2018-11-23T19:12:58.596Z,24.20
2018-11-23T19:13:58.585Z,26.40
2018-11-23T19:14:58.573Z,24.00
2018-11-23T19:15:58.562Z,24.80
2018-11-23T19:16:58.575Z,26.40
2018-11-23T19:17:58.540Z,24.50
2018-11-23T19:18:58.528Z,25.40
2018-11-23T19:19:58.545Z,26.00
2018-11-23T19:20:58.511Z,25.50
2018-11-23T19:21:58.518Z,25.40
2018-11-23T19:22:58.485Z,22.90
2018-11-23T19:23:58.475Z,24.80
2018-11-23T19:24:58.471Z,26.00
2018-11-23T19:25:58.453Z,25.80
2018-11-23T19:26:58.479Z,24.80
2018-11-23T19:27:58.433Z,25.20
2018-11-23T19:28:58.422Z,24.80
2018-11-23T19:29:58.410Z,24.60
2018-11-23T19:30:58.399Z,25.50
2018-11-23T19:31:58.418Z,23.60
2018-11-23T19:32:58.378Z,27.30
2018-11-23T19:33:59.394Z,26.00
2018-11-23T19:34:58.374Z,25.00
2018-11-23T19:35:58.346Z,24.70
2018-11-23T19:36:58.358Z,24.10
2018-11-23T19:37:58.323Z,22.90
2018-11-23T19:38:58.312Z,24.60
2018-11-23T19:39:58.304Z,25.50
2018-11-23T19:40:58.293Z,24.10
2018-11-23T19:41:58.302Z,26.80
2018-11-23T19:42:58.270Z,25.20
2018-11-23T19:43:58.258Z,25.20
2018-11-23T19:44:58.246Z,26.20
2018-11-23T19:45:58.240Z,27.30
2018-11-23T19:46:58.255Z,25.40
2018-11-23T19:47:58.227Z,24.20
2018-11-23T19:48:58.204Z,25.30
2018-11-23T19:49:58.193Z,26.40
2018-11-23T19:50:58.188Z,24.70
2018-11-23T19:51:58.194Z,24.80
2018-11-23T19:52:58.159Z,25.90
2018-11-23T19:53:58.153Z,23.90
2018-11-23T19:54:58.146Z,23.30
2018-11-23T19:55:58.131Z,25.00
2018-11-23T19:56:58.140Z,27.70
2018-11-23T19:57:58.106Z,25.60
2018-11-23T19:58:58.093Z,25.60
2018-11-23T19:59:58.086Z,26.90
2018-11-23T20:00:58.076Z,28.00
2018-11-23T20:01:58.083Z,28.60
2018-11-23T20:02:58.049Z,27.30
2018-11-23T20:03:58.037Z,25.30
2018-11-23T20:04:58.032Z,26.80
2018-11-23T20:05:58.016Z,24.70
2018-11-23T20:06:58.030Z,25.90
2018-11-23T20:07:57.995Z,27.00
2018-11-23T20:08:57.983Z,25.60
2018-11-23T20:09:57.972Z,26.80
2018-11-23T20:10:57.962Z,26.50
2018-11-23T20:11:57.979Z,27.80
2018-11-23T20:12:57.944Z,24.00
2018-11-23T20:13:57.927Z,26.30
2018-11-23T20:14:57.919Z,27.20
2018-11-23T20:15:57.908Z,29.00
2018-11-23T20:16:57.925Z,25.60
2018-11-23T20:17:57.885Z,25.00
2018-11-23T20:18:57.881Z,25.00
2018-11-23T20:19:57.866Z,24.20
2018-11-23T20:20:57.852Z,24.30
2018-11-23T20:21:57.864Z,23.60
2018-11-23T20:22:57.832Z,24.90
2018-11-23T20:23:57.821Z,24.60
2018-11-23T20:24:57.810Z,23.30
2018-11-23T20:25:57.799Z,25.50
2018-11-23T20:26:57.811Z,24.20
2018-11-23T20:27:57.775Z,23.50
2018-11-23T20:28:57.765Z,26.00
2018-11-23T20:29:57.768Z,24.80
2018-11-23T20:30:57.753Z,23.30
2018-11-23T20:31:57.763Z,24.90
2018-11-23T20:32:57.722Z,26.00
2018-11-23T20:33:57.712Z,24.80
2018-11-23T20:34:57.703Z,28.10
2018-11-23T20:35:57.707Z,26.30
2018-11-23T20:36:57.722Z,28.90
2018-11-23T20:37:57.680Z,26.70
2018-11-23T20:38:57.663Z,27.60
2018-11-23T20:39:57.652Z,26.10
2018-11-23T20:40:57.636Z,26.80
2018-11-23T20:41:57.622Z,28.30
2018-11-23T20:42:57.639Z,27.80
2018-11-23T20:43:57.613Z,25.80
2018-11-23T20:44:57.588Z,26.30
2018-11-23T20:45:57.582Z,27.60
2018-11-23T20:46:57.569Z,25.90
2018-11-23T20:47:57.581Z,26.60
2018-11-23T20:48:57.553Z,28.10
2018-11-23T20:49:57.544Z,26.90
2018-11-23T20:50:57.524Z,26.30
2018-11-23T20:51:57.512Z,26.50
2018-11-23T20:52:57.524Z,26.50
2018-11-23T20:53:57.491Z,27.30
2018-11-23T20:54:57.486Z,27.30
2018-11-23T20:55:57.487Z,25.60
2018-11-23T20:56:57.457Z,25.60
2018-11-23T20:57:57.468Z,25.00
2018-11-23T20:58:57.435Z,23.80
2018-11-23T20:59:57.425Z,25.80
2018-11-23T21:00:57.415Z,22.90
2018-11-23T21:01:57.402Z,24.20
2018-11-23T21:02:57.416Z,23.00
2018-11-23T21:03:57.380Z,25.10
2018-11-23T21:04:57.368Z,25.70
2018-11-23T21:05:57.359Z,24.60
2018-11-23T21:06:57.346Z,24.30
2018-11-23T21:07:57.357Z,25.60
2018-11-23T21:08:57.327Z,23.50
2018-11-23T21:09:57.313Z,23.70
2018-11-23T21:10:57.301Z,24.00
2018-11-23T21:11:57.291Z,20.80
2018-11-23T21:12:57.303Z,23.10
2018-11-23T21:13:57.272Z,23.60
2018-11-23T21:14:57.266Z,23.20
2018-11-23T21:15:57.251Z,23.80
2018-11-23T21:16:57.239Z,24.40
2018-11-23T21:17:57.259Z,22.90
2018-11-23T21:18:57.214Z,21.60
2018-11-23T21:19:57.204Z,22.40
2018-11-23T21:20:57.201Z,21.70
2018-11-23T21:21:57.183Z,22.30
2018-11-23T21:22:57.196Z,21.50
2018-11-23T21:23:57.161Z,23.00
2018-11-23T21:24:57.151Z,22.50
2018-11-23T21:25:57.139Z,23.10
2018-11-23T21:26:57.129Z,22.80
2018-11-23T21:27:57.146Z,22.20
2018-11-23T21:28:57.108Z,23.20
2018-11-23T21:29:57.096Z,22.40
2018-11-23T21:30:57.090Z,23.20
2018-11-23T21:31:57.076Z,22.40
2018-11-23T21:32:57.100Z,23.50
2018-11-23T21:33:57.054Z,22.20
2018-11-23T21:34:57.047Z,23.40
2018-11-23T21:35:57.032Z,21.50
2018-11-23T21:36:57.022Z,22.60
2018-11-23T21:37:57.038Z,22.70
2018-11-23T21:38:56.997Z,24.60
2018-11-23T21:39:56.989Z,24.00
2018-11-23T21:40:56.983Z,24.50
2018-11-23T21:41:56.966Z,23.00
2018-11-23T21:42:56.984Z,22.60
2018-11-23T21:43:56.944Z,22.10
2018-11-23T21:44:56.956Z,21.50
2018-11-23T21:45:56.925Z,24.90
2018-11-23T21:46:56.911Z,23.50
2018-11-23T21:47:56.925Z,24.40
2018-11-23T21:48:56.889Z,23.70
2018-11-23T21:49:56.877Z,24.80
2018-11-23T21:50:56.877Z,23.00
2018-11-23T21:51:57.343Z,23.90
2018-11-23T21:52:56.866Z,24.80
2018-11-23T21:53:56.834Z,23.60
2018-11-23T21:54:56.823Z,23.70
2018-11-23T21:55:56.819Z,23.20
2018-11-23T21:56:56.801Z,21.90
2018-11-23T21:57:56.814Z,24.40
2018-11-23T21:58:56.786Z,21.30
2018-11-23T21:59:56.766Z,22.90
2018-11-23T22:00:56.755Z,22.00
2018-11-23T22:01:56.743Z,22.80
2018-11-23T22:02:56.754Z,22.90
2018-11-23T22:03:56.722Z,23.70
2018-11-23T22:04:56.713Z,21.80
2018-11-23T22:05:56.698Z,24.80
2018-11-23T22:06:56.688Z,23.00
2018-11-23T22:07:56.701Z,21.00
2018-11-23T22:08:56.666Z,22.10
2018-11-23T22:09:56.667Z,22.70
2018-11-23T22:10:56.648Z,21.50
2018-11-23T22:11:56.634Z,19.50
2018-11-23T22:12:56.646Z,21.60
2018-11-23T22:13:56.610Z,20.90
2018-11-23T22:14:56.618Z,21.10
2018-11-23T22:15:56.590Z,21.40
2018-11-23T22:16:56.582Z,20.90
2018-11-23T22:17:56.592Z,20.60
2018-11-23T22:18:56.556Z,20.60
2018-11-23T22:19:56.549Z,20.50
2018-11-23T22:20:56.535Z,20.40
2018-11-23T22:21:56.529Z,20.30
2018-11-23T22:22:56.536Z,21.70
2018-11-23T22:24:01.378Z,21.30
2018-11-23T22:24:57.490Z,20.20
2018-11-23T22:25:56.480Z,20.30
2018-11-23T22:26:56.474Z,19.80
2018-11-23T22:27:56.482Z,22.00
2018-11-23T22:28:56.449Z,21.40
2018-11-23T22:29:56.437Z,20.70
2018-11-23T22:30:56.436Z,21.40
2018-11-23T22:31:56.437Z,20.20
2018-11-23T22:32:56.436Z,18.30
2018-11-23T22:33:56.394Z,20.60
2018-11-23T22:34:56.383Z,20.20
2018-11-23T22:35:56.401Z,20.30
2018-11-23T22:36:56.361Z,19.40
2018-11-23T22:37:56.351Z,21.00
2018-11-23T22:38:56.363Z,21.60
2018-11-23T22:39:56.331Z,20.70
2018-11-23T22:40:56.317Z,20.70
2018-11-23T22:41:56.307Z,20.10
2018-11-23T22:42:56.297Z,20.50
2018-11-23T22:43:56.307Z,20.10
2018-11-23T22:44:56.280Z,19.60
2018-11-23T22:45:56.263Z,21.40
2018-11-23T22:46:56.258Z,20.30
2018-11-23T22:47:56.243Z,20.20
2018-11-23T22:48:56.256Z,21.10
2018-11-23T22:49:56.219Z,21.10
2018-11-23T22:50:56.213Z,18.70
2018-11-23T22:51:56.203Z,20.40
2018-11-23T22:52:56.185Z,19.70
2018-11-23T22:53:56.197Z,19.90
2018-11-23T22:54:56.165Z,18.70
2018-11-23T22:55:56.154Z,19.50
2018-11-23T22:56:56.144Z,19.20
2018-11-23T22:57:56.131Z,20.70
2018-11-23T22:58:56.144Z,21.00
2018-11-23T22:59:56.112Z,19.40
2018-11-23T23:00:56.102Z,20.20
2018-11-23T23:01:56.089Z,18.90
2018-11-23T23:02:56.079Z,20.10
2018-11-23T23:03:56.089Z,20.40
2018-11-23T23:04:56.057Z,20.00
2018-11-23T23:05:56.045Z,19.10
2018-11-23T23:06:56.034Z,21.40
2018-11-23T23:07:56.026Z,19.20
2018-11-23T23:08:56.037Z,19.00
2018-11-23T23:09:56.007Z,21.50
2018-11-23T23:10:55.990Z,21.00
2018-11-23T23:11:55.979Z,20.00
2018-11-23T23:12:55.969Z,23.00
2018-11-23T23:13:55.984Z,20.30
2018-11-23T23:14:55.949Z,19.80
2018-11-23T23:15:55.938Z,20.60
2018-11-23T23:16:55.927Z,21.40
2018-11-23T23:17:55.913Z,20.00
2018-11-23T23:18:55.929Z,22.30
2018-11-23T23:19:55.893Z,18.50
2018-11-23T23:20:55.885Z,21.50
2018-11-23T23:21:55.873Z,20.40
2018-11-23T23:22:55.860Z,20.60
2018-11-23T23:23:55.872Z,20.10
2018-11-23T23:24:55.838Z,18.80
2018-11-23T23:25:55.839Z,19.90
2018-11-23T23:26:55.816Z,21.00
2018-11-23T23:27:55.813Z,19.20
2018-11-23T23:28:55.819Z,19.20
2018-11-23T23:29:55.785Z,18.00
2018-11-23T23:30:55.773Z,18.60
2018-11-23T23:31:55.777Z,19.20
2018-11-23T23:32:55.755Z,17.60
2018-11-23T23:33:55.769Z,19.10
2018-11-23T23:34:55.731Z,18.60
2018-11-23T23:35:55.720Z,17.90
2018-11-23T23:36:55.708Z,18.30
2018-11-23T23:37:55.699Z,18.20
2018-11-23T23:38:55.711Z,18.10
2018-11-23T23:39:55.677Z,19.50
2018-11-23T23:40:55.675Z,17.10
2018-11-23T23:41:55.672Z,19.30
2018-11-23T23:42:55.648Z,17.80
2018-11-23T23:43:55.657Z,18.00
2018-11-23T23:44:55.629Z,17.80
2018-11-23T23:45:55.611Z,16.10
2018-11-23T23:46:55.601Z,18.10
2018-11-23T23:47:55.592Z,18.00
2018-11-23T23:48:55.601Z,17.40
2018-11-23T23:49:55.567Z,17.30
2018-11-23T23:50:55.568Z,16.50
2018-11-23T23:51:55.550Z,18.80
2018-11-23T23:52:55.536Z,17.30
2018-11-23T23:53:55.554Z,18.50
2018-11-23T23:54:55.534Z,16.80
2018-11-23T23:55:55.505Z,15.50
2018-11-23T23:56:55.510Z,16.70
2018-11-23T23:57:55.484Z,18.00
2018-11-23T23:58:55.492Z,17.60
2018-11-23T23:59:55.462Z,16.10
